sensor_id;sensor_type;location;lat;lon;timestamp;P1;durP1;ratioP1;P2;durP2;ratioP2
70707;SDS011;58277;47.316;18.908;2024-01-27T00:00:14;9.80;;;3.85;;
70707;SDS011;58277;47.316;18.908;2024-01-27T00:02:39;11.02;;;4.70;;
70707;SDS011;58277;47.316;18.908;2024-01-27T00:05:02;12.45;;;5.13;;
70707;SDS011;58277;47.316;18.908;2024-01-27T00:07:25;11.52;;;4.55;;
70707;SDS011;58277;47.316;18.908;2024-01-27T00:09:49;12.60;;;4.33;;
70707;SDS011;58277;47.316;18.908;2024-01-27T00:12:12;10.63;;;4.22;;
70707;SDS011;58277;47.316;18.908;2024-01-27T00:14:37;10.93;;;4.20;;
70707;SDS011;58277;47.316;18.908;2024-01-27T00:17:01;10.45;;;3.83;;
70707;SDS011;58277;47.316;18.908;2024-01-27T00:19:23;8.23;;;3.55;;
70707;SDS011;58277;47.316;18.908;2024-01-27T00:21:46;10.80;;;3.60;;
70707;SDS011;58277;47.316;18.908;2024-01-27T00:24:10;6.50;;;2.75;;
70707;SDS011;58277;47.316;18.908;2024-01-27T00:26:39;6.63;;;2.70;;
70707;SDS011;58277;47.316;18.908;2024-01-27T00:29:02;6.20;;;2.40;;
70707;SDS011;58277;47.316;18.908;2024-01-27T00:31:25;6.45;;;2.60;;
70707;SDS011;58277;47.316;18.908;2024-01-27T00:33:48;6.73;;;2.13;;
70707;SDS011;58277;47.316;18.908;2024-01-27T00:36:13;6.10;;;2.35;;
70707;SDS011;58277;47.316;18.908;2024-01-27T00:38:39;3.72;;;1.55;;
70707;SDS011;58277;47.316;18.908;2024-01-27T00:41:02;3.92;;;1.60;;
70707;SDS011;58277;47.316;18.908;2024-01-27T00:43:25;3.78;;;1.60;;
70707;SDS011;58277;47.316;18.908;2024-01-27T00:45:47;5.00;;;1.70;;
70707;SDS011;58277;47.316;18.908;2024-01-27T00:48:11;5.15;;;1.83;;
70707;SDS011;58277;47.316;18.908;2024-01-27T00:50:40;4.03;;;1.75;;
70707;SDS011;58277;47.316;18.908;2024-01-27T00:53:02;4.25;;;1.77;;
70707;SDS011;58277;47.316;18.908;2024-01-27T00:55:25;4.68;;;1.70;;
70707;SDS011;58277;47.316;18.908;2024-01-27T00:57:48;4.63;;;1.53;;
70707;SDS011;58277;47.316;18.908;2024-01-27T01:00:11;3.28;;;1.42;;
70707;SDS011;58277;47.316;18.908;2024-01-27T01:02:36;3.22;;;1.92;;
70707;SDS011;58277;47.316;18.908;2024-01-27T01:04:59;4.03;;;1.73;;
70707;SDS011;58277;47.316;18.908;2024-01-27T01:07:22;4.18;;;1.77;;
70707;SDS011;58277;47.316;18.908;2024-01-27T01:09:44;4.03;;;1.67;;
70707;SDS011;58277;47.316;18.908;2024-01-27T01:12:08;3.97;;;1.50;;
70707;SDS011;58277;47.316;18.908;2024-01-27T01:14:36;3.75;;;1.73;;
70707;SDS011;58277;47.316;18.908;2024-01-27T01:16:59;4.95;;;1.88;;
70707;SDS011;58277;47.316;18.908;2024-01-27T01:19:22;3.92;;;1.55;;
70707;SDS011;58277;47.316;18.908;2024-01-27T01:21:45;3.53;;;1.50;;
70707;SDS011;58277;47.316;18.908;2024-01-27T01:24:09;4.07;;;1.70;;
70707;SDS011;58277;47.316;18.908;2024-01-27T01:26:38;2.83;;;1.40;;
70707;SDS011;58277;47.316;18.908;2024-01-27T01:29:00;4.30;;;1.48;;
70707;SDS011;58277;47.316;18.908;2024-01-27T01:31:23;4.93;;;1.60;;
70707;SDS011;58277;47.316;18.908;2024-01-27T01:33:46;5.50;;;1.60;;
70707;SDS011;58277;47.316;18.908;2024-01-27T01:36:09;2.90;;;1.50;;
70707;SDS011;58277;47.316;18.908;2024-01-27T01:38:38;4.10;;;1.83;;
70707;SDS011;58277;47.316;18.908;2024-01-27T01:41:01;3.28;;;1.65;;
70707;SDS011;58277;47.316;18.908;2024-01-27T01:43:23;3.22;;;1.65;;
70707;SDS011;58277;47.316;18.908;2024-01-27T01:45:46;3.43;;;1.30;;
70707;SDS011;58277;47.316;18.908;2024-01-27T01:48:09;4.05;;;1.30;;
70707;SDS011;58277;47.316;18.908;2024-01-27T01:50:32;2.85;;;1.50;;
70707;SDS011;58277;47.316;18.908;2024-01-27T01:52:56;3.20;;;1.25;;
70707;SDS011;58277;47.316;18.908;2024-01-27T01:55:19;2.53;;;1.33;;
70707;SDS011;58277;47.316;18.908;2024-01-27T01:57:42;3.57;;;1.10;;
70707;SDS011;58277;47.316;18.908;2024-01-27T02:00:06;1.80;;;0.98;;
70707;SDS011;58277;47.316;18.908;2024-01-27T02:02:34;2.03;;;1.00;;
70707;SDS011;58277;47.316;18.908;2024-01-27T02:04:56;1.75;;;0.88;;
70707;SDS011;58277;47.316;18.908;2024-01-27T02:07:19;1.85;;;0.80;;
70707;SDS011;58277;47.316;18.908;2024-01-27T02:09:42;2.00;;;0.77;;
70707;SDS011;58277;47.316;18.908;2024-01-27T02:12:05;2.25;;;0.90;;
70707;SDS011;58277;47.316;18.908;2024-01-27T02:14:37;2.67;;;0.70;;
70707;SDS011;58277;47.316;18.908;2024-01-27T02:17:00;2.75;;;0.88;;
70707;SDS011;58277;47.316;18.908;2024-01-27T02:19:23;3.60;;;0.82;;
70707;SDS011;58277;47.316;18.908;2024-01-27T02:21:46;2.50;;;0.70;;
70707;SDS011;58277;47.316;18.908;2024-01-27T02:24:09;1.58;;;0.65;;
70707;SDS011;58277;47.316;18.908;2024-01-27T02:26:38;3.38;;;0.77;;
70707;SDS011;58277;47.316;18.908;2024-01-27T02:29:01;3.00;;;0.60;;
70707;SDS011;58277;47.316;18.908;2024-01-27T02:31:23;2.05;;;0.80;;
70707;SDS011;58277;47.316;18.908;2024-01-27T02:33:46;2.53;;;0.60;;
70707;SDS011;58277;47.316;18.908;2024-01-27T02:36:09;2.40;;;0.80;;
70707;SDS011;58277;47.316;18.908;2024-01-27T02:38:32;2.33;;;0.70;;
70707;SDS011;58277;47.316;18.908;2024-01-27T02:40:55;3.05;;;0.40;;
70707;SDS011;58277;47.316;18.908;2024-01-27T02:43:18;2.35;;;0.47;;
70707;SDS011;58277;47.316;18.908;2024-01-27T02:45:40;1.70;;;0.57;;
70707;SDS011;58277;47.316;18.908;2024-01-27T02:48:03;1.60;;;0.60;;
70707;SDS011;58277;47.316;18.908;2024-01-27T02:50:26;2.30;;;0.57;;
70707;SDS011;58277;47.316;18.908;2024-01-27T02:52:49;1.20;;;0.60;;
70707;SDS011;58277;47.316;18.908;2024-01-27T02:55:12;2.50;;;0.70;;
70707;SDS011;58277;47.316;18.908;2024-01-27T02:57:34;3.27;;;0.60;;
70707;SDS011;58277;47.316;18.908;2024-01-27T02:59:57;2.95;;;0.70;;
70707;SDS011;58277;47.316;18.908;2024-01-27T03:02:20;2.17;;;0.60;;
70707;SDS011;58277;47.316;18.908;2024-01-27T03:04:43;1.65;;;0.50;;
70707;SDS011;58277;47.316;18.908;2024-01-27T03:07:05;2.10;;;0.70;;
70707;SDS011;58277;47.316;18.908;2024-01-27T03:09:28;1.67;;;0.70;;
70707;SDS011;58277;47.316;18.908;2024-01-27T03:11:51;1.30;;;0.60;;
70707;SDS011;58277;47.316;18.908;2024-01-27T03:14:14;2.08;;;0.50;;
70707;SDS011;58277;47.316;18.908;2024-01-27T03:16:36;1.88;;;0.40;;
70707;SDS011;58277;47.316;18.908;2024-01-27T03:18:59;2.00;;;0.70;;
70707;SDS011;58277;47.316;18.908;2024-01-27T03:21:22;1.30;;;0.43;;
70707;SDS011;58277;47.316;18.908;2024-01-27T03:23:45;1.33;;;0.50;;
70707;SDS011;58277;47.316;18.908;2024-01-27T03:26:07;1.65;;;0.60;;
70707;SDS011;58277;47.316;18.908;2024-01-27T03:28:30;2.53;;;0.68;;
70707;SDS011;58277;47.316;18.908;2024-01-27T03:30:53;2.30;;;0.55;;
70707;SDS011;58277;47.316;18.908;2024-01-27T03:33:16;2.27;;;0.50;;
70707;SDS011;58277;47.316;18.908;2024-01-27T03:35:39;1.15;;;0.60;;
70707;SDS011;58277;47.316;18.908;2024-01-27T03:38:02;1.48;;;0.40;;
70707;SDS011;58277;47.316;18.908;2024-01-27T03:40:26;3.30;;;0.55;;
70707;SDS011;58277;47.316;18.908;2024-01-27T03:42:49;2.35;;;0.80;;
70707;SDS011;58277;47.316;18.908;2024-01-27T03:45:11;2.60;;;0.80;;
70707;SDS011;58277;47.316;18.908;2024-01-27T03:47:34;2.47;;;0.73;;
70707;SDS011;58277;47.316;18.908;2024-01-27T03:49:57;1.92;;;0.70;;
70707;SDS011;58277;47.316;18.908;2024-01-27T03:52:19;2.53;;;0.80;;
70707;SDS011;58277;47.316;18.908;2024-01-27T03:54:42;1.95;;;1.00;;
70707;SDS011;58277;47.316;18.908;2024-01-27T03:57:05;2.67;;;0.60;;
70707;SDS011;58277;47.316;18.908;2024-01-27T03:59:28;2.75;;;0.88;;
70707;SDS011;58277;47.316;18.908;2024-01-27T04:01:51;1.52;;;0.90;;
70707;SDS011;58277;47.316;18.908;2024-01-27T04:04:13;2.08;;;0.90;;
70707;SDS011;58277;47.316;18.908;2024-01-27T04:06:37;2.30;;;1.00;;
70707;SDS011;58277;47.316;18.908;2024-01-27T04:09:00;2.13;;;0.67;;
70707;SDS011;58277;47.316;18.908;2024-01-27T04:11:23;2.60;;;0.80;;
70707;SDS011;58277;47.316;18.908;2024-01-27T04:13:46;4.07;;;1.10;;
70707;SDS011;58277;47.316;18.908;2024-01-27T04:16:09;2.72;;;0.90;;
70707;SDS011;58277;47.316;18.908;2024-01-27T04:18:31;1.58;;;0.90;;
70707;SDS011;58277;47.316;18.908;2024-01-27T04:20:54;2.13;;;0.87;;
70707;SDS011;58277;47.316;18.908;2024-01-27T04:23:17;3.15;;;0.95;;
70707;SDS011;58277;47.316;18.908;2024-01-27T04:25:40;3.75;;;1.00;;
70707;SDS011;58277;47.316;18.908;2024-01-27T04:28:03;2.50;;;0.80;;
70707;SDS011;58277;47.316;18.908;2024-01-27T04:30:26;1.50;;;0.70;;
70707;SDS011;58277;47.316;18.908;2024-01-27T04:32:49;2.10;;;0.60;;
70707;SDS011;58277;47.316;18.908;2024-01-27T04:35:12;2.05;;;0.75;;
70707;SDS011;58277;47.316;18.908;2024-01-27T04:37:35;2.05;;;0.70;;
70707;SDS011;58277;47.316;18.908;2024-01-27T04:39:57;3.95;;;0.75;;
70707;SDS011;58277;47.316;18.908;2024-01-27T04:42:20;3.95;;;0.80;;
70707;SDS011;58277;47.316;18.908;2024-01-27T04:44:43;1.60;;;0.60;;
70707;SDS011;58277;47.316;18.908;2024-01-27T04:47:06;2.95;;;0.60;;
70707;SDS011;58277;47.316;18.908;2024-01-27T04:49:29;2.22;;;0.80;;
70707;SDS011;58277;47.316;18.908;2024-01-27T04:51:52;2.83;;;1.13;;
70707;SDS011;58277;47.316;18.908;2024-01-27T04:54:16;3.67;;;1.30;;
70707;SDS011;58277;47.316;18.908;2024-01-27T04:56:40;4.10;;;1.00;;
70707;SDS011;58277;47.316;18.908;2024-01-27T04:59:03;5.22;;;0.77;;
70707;SDS011;58277;47.316;18.908;2024-01-27T05:01:25;2.63;;;0.77;;
70707;SDS011;58277;47.316;18.908;2024-01-27T05:03:51;4.57;;;0.60;;
70707;SDS011;58277;47.316;18.908;2024-01-27T05:06:14;2.50;;;0.80;;
70707;SDS011;58277;47.316;18.908;2024-01-27T05:08:40;3.97;;;1.10;;
70707;SDS011;58277;47.316;18.908;2024-01-27T05:11:03;4.72;;;0.80;;
70707;SDS011;58277;47.316;18.908;2024-01-27T05:13:26;1.73;;;0.73;;
70707;SDS011;58277;47.316;18.908;2024-01-27T05:15:49;4.93;;;1.02;;
70707;SDS011;58277;47.316;18.908;2024-01-27T05:18:13;3.42;;;0.77;;
70707;SDS011;58277;47.316;18.908;2024-01-27T05:20:40;2.63;;;0.93;;
70707;SDS011;58277;47.316;18.908;2024-01-27T05:23:03;3.00;;;0.60;;
70707;SDS011;58277;47.316;18.908;2024-01-27T05:25:26;3.00;;;0.88;;
70707;SDS011;58277;47.316;18.908;2024-01-27T05:27:49;2.83;;;0.60;;
70707;SDS011;58277;47.316;18.908;2024-01-27T05:30:12;4.70;;;0.90;;
70707;SDS011;58277;47.316;18.908;2024-01-27T05:32:39;2.57;;;0.80;;
70707;SDS011;58277;47.316;18.908;2024-01-27T05:35:03;8.07;;;1.40;;
70707;SDS011;58277;47.316;18.908;2024-01-27T05:37:27;3.33;;;1.10;;
70707;SDS011;58277;47.316;18.908;2024-01-27T05:39:50;3.28;;;0.75;;
70707;SDS011;58277;47.316;18.908;2024-01-27T05:42:13;4.95;;;0.85;;
70707;SDS011;58277;47.316;18.908;2024-01-27T05:44:38;4.10;;;0.90;;
70707;SDS011;58277;47.316;18.908;2024-01-27T05:47:02;2.63;;;0.57;;
70707;SDS011;58277;47.316;18.908;2024-01-27T05:49:27;4.15;;;1.02;;
70707;SDS011;58277;47.316;18.908;2024-01-27T05:51:50;3.05;;;0.73;;
70707;SDS011;58277;47.316;18.908;2024-01-27T05:54:13;7.20;;;1.02;;
70707;SDS011;58277;47.316;18.908;2024-01-27T05:56:39;2.47;;;0.60;;
70707;SDS011;58277;47.316;18.908;2024-01-27T05:59:02;3.22;;;0.90;;
70707;SDS011;58277;47.316;18.908;2024-01-27T06:01:25;3.50;;;0.95;;
70707;SDS011;58277;47.316;18.908;2024-01-27T06:03:48;3.55;;;0.75;;
70707;SDS011;58277;47.316;18.908;2024-01-27T06:06:14;4.55;;;0.90;;
70707;SDS011;58277;47.316;18.908;2024-01-27T06:08:38;3.37;;;0.67;;
70707;SDS011;58277;47.316;18.908;2024-01-27T06:11:02;3.03;;;1.00;;
70707;SDS011;58277;47.316;18.908;2024-01-27T06:13:31;3.60;;;0.93;;
70707;SDS011;58277;47.316;18.908;2024-01-27T06:15:55;3.97;;;1.00;;
70707;SDS011;58277;47.316;18.908;2024-01-27T06:18:18;3.55;;;1.00;;
70707;SDS011;58277;47.316;18.908;2024-01-27T06:20:41;3.20;;;0.90;;
70707;SDS011;58277;47.316;18.908;2024-01-27T06:23:04;5.03;;;1.23;;
70707;SDS011;58277;47.316;18.908;2024-01-27T06:25:27;4.80;;;1.25;;
70707;SDS011;58277;47.316;18.908;2024-01-27T06:27:50;4.70;;;0.90;;
70707;SDS011;58277;47.316;18.908;2024-01-27T06:30:15;3.63;;;1.00;;
70707;SDS011;58277;47.316;18.908;2024-01-27T06:32:39;4.87;;;1.33;;
70707;SDS011;58277;47.316;18.908;2024-01-27T06:35:03;5.55;;;1.33;;
70707;SDS011;58277;47.316;18.908;2024-01-27T06:37:26;4.75;;;1.20;;
70707;SDS011;58277;47.316;18.908;2024-01-27T06:39:49;2.25;;;0.93;;
70707;SDS011;58277;47.316;18.908;2024-01-27T06:42:14;2.20;;;0.90;;
70707;SDS011;58277;47.316;18.908;2024-01-27T06:44:40;2.63;;;0.73;;
70707;SDS011;58277;47.316;18.908;2024-01-27T06:47:04;2.42;;;0.95;;
70707;SDS011;58277;47.316;18.908;2024-01-27T06:49:26;2.95;;;1.00;;
70707;SDS011;58277;47.316;18.908;2024-01-27T06:51:49;2.03;;;1.00;;
70707;SDS011;58277;47.316;18.908;2024-01-27T06:54:14;3.50;;;1.00;;
70707;SDS011;58277;47.316;18.908;2024-01-27T06:56:39;3.40;;;0.87;;
70707;SDS011;58277;47.316;18.908;2024-01-27T06:59:02;5.93;;;0.95;;
70707;SDS011;58277;47.316;18.908;2024-01-27T07:01:25;2.15;;;0.82;;
70707;SDS011;58277;47.316;18.908;2024-01-27T07:03:48;3.65;;;1.27;;
70707;SDS011;58277;47.316;18.908;2024-01-27T07:06:11;2.53;;;1.20;;
70707;SDS011;58277;47.316;18.908;2024-01-27T07:08:40;3.60;;;0.93;;
70707;SDS011;58277;47.316;18.908;2024-01-27T07:11:03;4.40;;;0.90;;
70707;SDS011;58277;47.316;18.908;2024-01-27T07:13:25;1.58;;;0.68;;
70707;SDS011;58277;47.316;18.908;2024-01-27T07:15:51;4.03;;;0.90;;
70707;SDS011;58277;47.316;18.908;2024-01-27T07:18:14;3.50;;;0.80;;
70707;SDS011;58277;47.316;18.908;2024-01-27T07:20:42;3.30;;;0.70;;
70707;SDS011;58277;47.316;18.908;2024-01-27T07:23:05;2.35;;;0.90;;
70707;SDS011;58277;47.316;18.908;2024-01-27T07:25:28;3.70;;;0.80;;
70707;SDS011;58277;47.316;18.908;2024-01-27T07:27:52;1.95;;;0.90;;
70707;SDS011;58277;47.316;18.908;2024-01-27T07:30:15;4.20;;;0.90;;
70707;SDS011;58277;47.316;18.908;2024-01-27T07:32:38;2.57;;;0.70;;
70707;SDS011;58277;47.316;18.908;2024-01-27T07:35:01;2.92;;;0.77;;
70707;SDS011;58277;47.316;18.908;2024-01-27T07:37:24;2.90;;;0.90;;
70707;SDS011;58277;47.316;18.908;2024-01-27T07:39:47;2.85;;;1.20;;
70707;SDS011;58277;47.316;18.908;2024-01-27T07:42:13;2.35;;;1.10;;
70707;SDS011;58277;47.316;18.908;2024-01-27T07:44:39;2.33;;;0.70;;
70707;SDS011;58277;47.316;18.908;2024-01-27T07:47:02;2.60;;;0.50;;
70707;SDS011;58277;47.316;18.908;2024-01-27T07:49:25;3.90;;;0.98;;
70707;SDS011;58277;47.316;18.908;2024-01-27T07:51:48;2.92;;;0.90;;
70707;SDS011;58277;47.316;18.908;2024-01-27T07:54:11;3.13;;;0.90;;
70707;SDS011;58277;47.316;18.908;2024-01-27T07:56:38;2.90;;;0.70;;
70707;SDS011;58277;47.316;18.908;2024-01-27T07:59:01;4.35;;;0.70;;
70707;SDS011;58277;47.316;18.908;2024-01-27T08:01:24;3.05;;;0.80;;
70707;SDS011;58277;47.316;18.908;2024-01-27T08:03:50;1.90;;;0.60;;
70707;SDS011;58277;47.316;18.908;2024-01-27T08:06:16;3.40;;;0.73;;
70707;SDS011;58277;47.316;18.908;2024-01-27T08:08:40;2.50;;;0.73;;
70707;SDS011;58277;47.316;18.908;2024-01-27T08:11:04;2.65;;;0.70;;
70707;SDS011;58277;47.316;18.908;2024-01-27T08:13:27;1.88;;;0.80;;
70707;SDS011;58277;47.316;18.908;2024-01-27T08:15:49;2.70;;;0.80;;
70707;SDS011;58277;47.316;18.908;2024-01-27T08:20:55;2.50;;;0.90;;
70707;SDS011;58277;47.316;18.908;2024-01-27T08:23:18;2.95;;;1.00;;
70707;SDS011;58277;47.316;18.908;2024-01-27T08:25:41;2.40;;;0.90;;
70707;SDS011;58277;47.316;18.908;2024-01-27T08:28:06;2.15;;;0.65;;
70707;SDS011;58277;47.316;18.908;2024-01-27T08:30:29;2.42;;;0.70;;
70707;SDS011;58277;47.316;18.908;2024-01-27T08:32:52;3.10;;;0.60;;
70707;SDS011;58277;47.316;18.908;2024-01-27T08:35:16;4.15;;;0.60;;
70707;SDS011;58277;47.316;18.908;2024-01-27T08:37:38;4.07;;;0.73;;
70707;SDS011;58277;47.316;18.908;2024-01-27T08:40:01;3.40;;;0.57;;
70707;SDS011;58277;47.316;18.908;2024-01-27T08:42:24;2.65;;;0.80;;
70707;SDS011;58277;47.316;18.908;2024-01-27T08:44:47;2.93;;;0.63;;
70707;SDS011;58277;47.316;18.908;2024-01-27T08:47:10;1.73;;;0.70;;
70707;SDS011;58277;47.316;18.908;2024-01-27T08:49:33;3.20;;;0.98;;
70707;SDS011;58277;47.316;18.908;2024-01-27T08:51:55;2.83;;;0.80;;
70707;SDS011;58277;47.316;18.908;2024-01-27T08:54:18;2.30;;;0.70;;
70707;SDS011;58277;47.316;18.908;2024-01-27T08:56:42;2.47;;;0.67;;
70707;SDS011;58277;47.316;18.908;2024-01-27T08:59:05;2.63;;;0.93;;
70707;SDS011;58277;47.316;18.908;2024-01-27T09:01:27;1.98;;;0.70;;
70707;SDS011;58277;47.316;18.908;2024-01-27T09:03:50;3.05;;;0.80;;
70707;SDS011;58277;47.316;18.908;2024-01-27T09:06:13;2.78;;;0.70;;
70707;SDS011;58277;47.316;18.908;2024-01-27T09:08:37;2.80;;;0.60;;
70707;SDS011;58277;47.316;18.908;2024-01-27T09:11:01;2.08;;;0.68;;
70707;SDS011;58277;47.316;18.908;2024-01-27T09:13:24;2.80;;;0.70;;
70707;SDS011;58277;47.316;18.908;2024-01-27T09:15:46;3.05;;;0.60;;
70707;SDS011;58277;47.316;18.908;2024-01-27T09:18:16;2.10;;;0.95;;
70707;SDS011;58277;47.316;18.908;2024-01-27T09:20:40;3.70;;;0.70;;
70707;SDS011;58277;47.316;18.908;2024-01-27T09:23:03;2.45;;;0.80;;
70707;SDS011;58277;47.316;18.908;2024-01-27T09:25:28;2.78;;;0.65;;
70707;SDS011;58277;47.316;18.908;2024-01-27T09:27:53;3.10;;;0.60;;
70707;SDS011;58277;47.316;18.908;2024-01-27T09:30:17;4.18;;;1.00;;
70707;SDS011;58277;47.316;18.908;2024-01-27T09:32:41;2.73;;;0.70;;
70707;SDS011;58277;47.316;18.908;2024-01-27T09:35:04;2.03;;;0.60;;
70707;SDS011;58277;47.316;18.908;2024-01-27T09:37:27;2.40;;;0.90;;
70707;SDS011;58277;47.316;18.908;2024-01-27T09:39:51;1.95;;;0.60;;
70707;SDS011;58277;47.316;18.908;2024-01-27T09:42:13;3.70;;;0.90;;
70707;SDS011;58277;47.316;18.908;2024-01-27T09:44:39;4.53;;;0.80;;
70707;SDS011;58277;47.316;18.908;2024-01-27T09:47:05;4.53;;;0.80;;
70707;SDS011;58277;47.316;18.908;2024-01-27T09:49:28;3.13;;;0.70;;
70707;SDS011;58277;47.316;18.908;2024-01-27T09:51:54;2.58;;;0.77;;
70707;SDS011;58277;47.316;18.908;2024-01-27T09:54:18;4.30;;;1.08;;
70707;SDS011;58277;47.316;18.908;2024-01-27T09:56:43;5.60;;;1.20;;
70707;SDS011;58277;47.316;18.908;2024-01-27T09:59:08;3.05;;;0.80;;
70707;SDS011;58277;47.316;18.908;2024-01-27T10:01:32;3.50;;;0.93;;
70707;SDS011;58277;47.316;18.908;2024-01-27T10:03:56;4.55;;;0.95;;
70707;SDS011;58277;47.316;18.908;2024-01-27T10:06:20;2.80;;;0.85;;
70707;SDS011;58277;47.316;18.908;2024-01-27T10:08:51;2.57;;;0.80;;
70707;SDS011;58277;47.316;18.908;2024-01-27T10:11:16;6.28;;;0.80;;
70707;SDS011;58277;47.316;18.908;2024-01-27T10:13:39;5.05;;;0.77;;
70707;SDS011;58277;47.316;18.908;2024-01-27T10:16:05;5.70;;;1.10;;
70707;SDS011;58277;47.316;18.908;2024-01-27T10:18:29;4.13;;;1.02;;
70707;SDS011;58277;47.316;18.908;2024-01-27T10:20:53;2.87;;;0.67;;
70707;SDS011;58277;47.316;18.908;2024-01-27T10:23:16;3.17;;;0.75;;
70707;SDS011;58277;47.316;18.908;2024-01-27T10:25:39;4.70;;;0.98;;
70707;SDS011;58277;47.316;18.908;2024-01-27T10:28:04;4.07;;;1.10;;
70707;SDS011;58277;47.316;18.908;2024-01-27T10:30:29;5.25;;;1.00;;
70707;SDS011;58277;47.316;18.908;2024-01-27T10:32:54;4.03;;;0.87;;
70707;SDS011;58277;47.316;18.908;2024-01-27T10:35:20;3.28;;;0.98;;
70707;SDS011;58277;47.316;18.908;2024-01-27T10:37:43;4.18;;;1.05;;
70707;SDS011;58277;47.316;18.908;2024-01-27T10:40:06;5.15;;;0.88;;
70707;SDS011;58277;47.316;18.908;2024-01-27T10:42:30;5.85;;;0.90;;
70707;SDS011;58277;47.316;18.908;2024-01-27T10:44:53;4.50;;;1.00;;
70707;SDS011;58277;47.316;18.908;2024-01-27T10:47:20;4.32;;;0.90;;
70707;SDS011;58277;47.316;18.908;2024-01-27T10:49:46;3.63;;;0.90;;
70707;SDS011;58277;47.316;18.908;2024-01-27T10:52:11;4.43;;;0.88;;
70707;SDS011;58277;47.316;18.908;2024-01-27T10:54:40;4.97;;;1.25;;
70707;SDS011;58277;47.316;18.908;2024-01-27T10:57:04;6.10;;;0.90;;
70707;SDS011;58277;47.316;18.908;2024-01-27T10:59:28;4.53;;;0.82;;
70707;SDS011;58277;47.316;18.908;2024-01-27T11:01:53;4.20;;;1.00;;
70707;SDS011;58277;47.316;18.908;2024-01-27T11:04:17;5.93;;;0.90;;
70707;SDS011;58277;47.316;18.908;2024-01-27T11:06:41;2.40;;;1.00;;
70707;SDS011;58277;47.316;18.908;2024-01-27T11:09:05;4.50;;;0.80;;
70707;SDS011;58277;47.316;18.908;2024-01-27T11:11:31;3.88;;;0.73;;
70707;SDS011;58277;47.316;18.908;2024-01-27T11:13:54;5.15;;;1.10;;
70707;SDS011;58277;47.316;18.908;2024-01-27T11:16:18;2.47;;;0.80;;
70707;SDS011;58277;47.316;18.908;2024-01-27T11:18:41;3.42;;;1.05;;
70707;SDS011;58277;47.316;18.908;2024-01-27T11:21:05;2.63;;;0.70;;
70707;SDS011;58277;47.316;18.908;2024-01-27T11:23:34;1.73;;;0.65;;
70707;SDS011;58277;47.316;18.908;2024-01-27T11:26:07;4.38;;;1.10;;
70707;SDS011;58277;47.316;18.908;2024-01-27T11:28:31;2.53;;;0.70;;
70707;SDS011;58277;47.316;18.908;2024-01-27T11:30:53;4.45;;;0.90;;
70707;SDS011;58277;47.316;18.908;2024-01-27T11:33:16;3.13;;;0.70;;
70707;SDS011;58277;47.316;18.908;2024-01-27T11:35:40;3.83;;;1.10;;
70707;SDS011;58277;47.316;18.908;2024-01-27T11:38:03;5.30;;;1.02;;
70707;SDS011;58277;47.316;18.908;2024-01-27T11:40:26;5.10;;;1.10;;
70707;SDS011;58277;47.316;18.908;2024-01-27T11:45:19;4.03;;;1.03;;
70707;SDS011;58277;47.316;18.908;2024-01-27T11:47:41;2.55;;;0.70;;
70707;SDS011;58277;47.316;18.908;2024-01-27T11:50:05;5.82;;;1.00;;
70707;SDS011;58277;47.316;18.908;2024-01-27T11:52:30;4.25;;;0.90;;
70707;SDS011;58277;47.316;18.908;2024-01-27T11:54:56;2.15;;;1.10;;
70707;SDS011;58277;47.316;18.908;2024-01-27T11:57:25;2.00;;;0.80;;
70707;SDS011;58277;47.316;18.908;2024-01-27T11:59:48;3.65;;;1.08;;
70707;SDS011;58277;47.316;18.908;2024-01-27T12:02:12;5.38;;;1.10;;
70707;SDS011;58277;47.316;18.908;2024-01-27T12:04:36;2.40;;;1.00;;
70707;SDS011;58277;47.316;18.908;2024-01-27T12:06:59;2.35;;;1.20;;
70707;SDS011;58277;47.316;18.908;2024-01-27T12:09:22;3.33;;;0.90;;
70707;SDS011;58277;47.316;18.908;2024-01-27T12:11:45;4.38;;;1.20;;
70707;SDS011;58277;47.316;18.908;2024-01-27T12:14:08;3.63;;;1.58;;
70707;SDS011;58277;47.316;18.908;2024-01-27T12:16:30;3.72;;;1.13;;
70707;SDS011;58277;47.316;18.908;2024-01-27T12:18:54;3.83;;;1.02;;
70707;SDS011;58277;47.316;18.908;2024-01-27T12:21:20;2.83;;;0.83;;
70707;SDS011;58277;47.316;18.908;2024-01-27T12:23:50;2.95;;;0.80;;
70707;SDS011;58277;47.316;18.908;2024-01-27T12:26:17;2.72;;;0.93;;
70707;SDS011;58277;47.316;18.908;2024-01-27T12:28:40;3.92;;;1.00;;
70707;SDS011;58277;47.316;18.908;2024-01-27T12:31:03;5.57;;;1.13;;
70707;SDS011;58277;47.316;18.908;2024-01-27T12:33:26;3.07;;;1.00;;
70707;SDS011;58277;47.316;18.908;2024-01-27T12:35:50;4.07;;;1.10;;
70707;SDS011;58277;47.316;18.908;2024-01-27T12:38:13;3.28;;;1.00;;
70707;SDS011;58277;47.316;18.908;2024-01-27T12:40:37;5.57;;;1.08;;
70707;SDS011;58277;47.316;18.908;2024-01-27T12:43:00;4.43;;;1.20;;
70707;SDS011;58277;47.316;18.908;2024-01-27T12:45:23;5.07;;;1.00;;
70707;SDS011;58277;47.316;18.908;2024-01-27T12:47:48;2.50;;;0.90;;
70707;SDS011;58277;47.316;18.908;2024-01-27T12:50:12;4.22;;;1.10;;
70707;SDS011;58277;47.316;18.908;2024-01-27T12:52:36;5.40;;;1.15;;
70707;SDS011;58277;47.316;18.908;2024-01-27T12:54:59;3.63;;;1.20;;
70707;SDS011;58277;47.316;18.908;2024-01-27T12:57:22;4.67;;;1.20;;
70707;SDS011;58277;47.316;18.908;2024-01-27T12:59:44;4.72;;;1.17;;
70707;SDS011;58277;47.316;18.908;2024-01-27T13:02:07;3.25;;;1.20;;
70707;SDS011;58277;47.316;18.908;2024-01-27T13:04:30;3.13;;;1.00;;
70707;SDS011;58277;47.316;18.908;2024-01-27T13:06:53;3.85;;;1.30;;
70707;SDS011;58277;47.316;18.908;2024-01-27T13:09:17;4.87;;;1.10;;
70707;SDS011;58277;47.316;18.908;2024-01-27T13:11:40;6.97;;;1.20;;
70707;SDS011;58277;47.316;18.908;2024-01-27T13:14:02;3.22;;;1.08;;
70707;SDS011;58277;47.316;18.908;2024-01-27T13:16:25;2.70;;;0.85;;
70707;SDS011;58277;47.316;18.908;2024-01-27T13:18:51;3.75;;;1.10;;
70707;SDS011;58277;47.316;18.908;2024-01-27T13:21:14;5.30;;;0.97;;
70707;SDS011;58277;47.316;18.908;2024-01-27T13:23:37;3.38;;;0.90;;
70707;SDS011;58277;47.316;18.908;2024-01-27T13:26:00;5.95;;;0.88;;
70707;SDS011;58277;47.316;18.908;2024-01-27T13:28:39;5.15;;;1.08;;
70707;SDS011;58277;47.316;18.908;2024-01-27T13:31:02;4.35;;;1.20;;
70707;SDS011;58277;47.316;18.908;2024-01-27T13:33:27;4.67;;;1.00;;
70707;SDS011;58277;47.316;18.908;2024-01-27T13:35:51;5.35;;;1.08;;
70707;SDS011;58277;47.316;18.908;2024-01-27T13:38:14;4.60;;;1.10;;
70707;SDS011;58277;47.316;18.908;2024-01-27T13:40:38;5.30;;;1.23;;
70707;SDS011;58277;47.316;18.908;2024-01-27T13:43:01;5.40;;;1.23;;
70707;SDS011;58277;47.316;18.908;2024-01-27T13:45:24;3.43;;;0.97;;
70707;SDS011;58277;47.316;18.908;2024-01-27T13:47:46;3.95;;;1.10;;
70707;SDS011;58277;47.316;18.908;2024-01-27T13:50:09;6.82;;;1.30;;
70707;SDS011;58277;47.316;18.908;2024-01-27T13:52:34;5.82;;;1.40;;
70707;SDS011;58277;47.316;18.908;2024-01-27T13:54:56;3.28;;;1.20;;
70707;SDS011;58277;47.316;18.908;2024-01-27T13:57:19;6.77;;;1.30;;
70707;SDS011;58277;47.316;18.908;2024-01-27T13:59:42;3.80;;;0.90;;
70707;SDS011;58277;47.316;18.908;2024-01-27T14:02:05;4.15;;;0.90;;
70707;SDS011;58277;47.316;18.908;2024-01-27T14:04:28;4.40;;;0.80;;
70707;SDS011;58277;47.316;18.908;2024-01-27T14:06:51;6.35;;;1.42;;
70707;SDS011;58277;47.316;18.908;2024-01-27T14:09:15;4.67;;;1.10;;
70707;SDS011;58277;47.316;18.908;2024-01-27T14:11:38;5.22;;;1.08;;
70707;SDS011;58277;47.316;18.908;2024-01-27T14:14:01;3.65;;;0.98;;
70707;SDS011;58277;47.316;18.908;2024-01-27T14:16:24;5.25;;;1.13;;